sensor_id;sensor_type;location;lat;lon;timestamp;P1;durP1;ratioP1;P2;durP2;ratioP2
65769;SDS011;52512;47.650;8.578;2022-08-25T00:01:19;4.93;;;3.40;;
65769;SDS011;52512;47.650;8.578;2022-08-25T00:03:49;3.50;;;3.17;;
65769;SDS011;52512;47.650;8.578;2022-08-25T00:06:16;7.50;;;2.90;;
65769;SDS011;52512;47.650;8.578;2022-08-25T00:08:42;2.97;;;2.60;;
65769;SDS011;52512;47.650;8.578;2022-08-25T00:11:14;2.63;;;2.40;;
65769;SDS011;52512;47.650;8.578;2022-08-25T00:13:43;4.53;;;4.10;;
65769;SDS011;52512;47.650;8.578;2022-08-25T00:16:12;4.60;;;2.70;;
65769;SDS011;52512;47.650;8.578;2022-08-25T00:18:42;2.77;;;2.67;;
65769;SDS011;52512;47.650;8.578;2022-08-25T00:21:10;5.83;;;3.30;;
65769;SDS011;52512;47.650;8.578;2022-08-25T00:23:36;5.53;;;2.50;;
65769;SDS011;52512;47.650;8.578;2022-08-25T00:26:03;6.67;;;3.07;;
65769;SDS011;52512;47.650;8.578;2022-08-25T00:28:30;2.93;;;2.60;;
65769;SDS011;52512;47.650;8.578;2022-08-25T00:30:56;3.53;;;3.07;;
65769;SDS011;52512;47.650;8.578;2022-08-25T00:33:22;6.03;;;3.00;;
65769;SDS011;52512;47.650;8.578;2022-08-25T00:35:50;4.60;;;3.20;;
65769;SDS011;52512;47.650;8.578;2022-08-25T00:38:16;2.93;;;2.67;;
65769;SDS011;52512;47.650;8.578;2022-08-25T00:40:42;2.97;;;2.77;;
65769;SDS011;52512;47.650;8.578;2022-08-25T00:43:09;3.90;;;2.70;;
65769;SDS011;52512;47.650;8.578;2022-08-25T00:45:35;21.53;;;3.50;;
65769;SDS011;52512;47.650;8.578;2022-08-25T00:48:01;3.67;;;2.97;;
65769;SDS011;52512;47.650;8.578;2022-08-25T00:50:28;3.13;;;2.90;;
65769;SDS011;52512;47.650;8.578;2022-08-25T00:52:56;5.57;;;3.60;;
65769;SDS011;52512;47.650;8.578;2022-08-25T00:55:25;7.13;;;3.20;;
65769;SDS011;52512;47.650;8.578;2022-08-25T00:57:55;3.70;;;3.27;;
65769;SDS011;52512;47.650;8.578;2022-08-25T01:00:25;2.90;;;2.70;;
65769;SDS011;52512;47.650;8.578;2022-08-25T01:02:54;3.47;;;2.63;;
65769;SDS011;52512;47.650;8.578;2022-08-25T01:05:21;3.50;;;3.17;;
65769;SDS011;52512;47.650;8.578;2022-08-25T01:07:48;6.67;;;2.93;;
65769;SDS011;52512;47.650;8.578;2022-08-25T01:10:15;2.57;;;2.37;;
65769;SDS011;52512;47.650;8.578;2022-08-25T01:12:42;3.10;;;2.83;;
65769;SDS011;52512;47.650;8.578;2022-08-25T01:15:09;4.00;;;3.23;;
65769;SDS011;52512;47.650;8.578;2022-08-25T01:17:47;3.70;;;2.80;;
65769;SDS011;52512;47.650;8.578;2022-08-25T01:20:15;3.00;;;2.80;;
65769;SDS011;52512;47.650;8.578;2022-08-25T01:22:43;2.20;;;2.10;;
65769;SDS011;52512;47.650;8.578;2022-08-25T01:25:31;5.10;;;2.93;;
65769;SDS011;52512;47.650;8.578;2022-08-25T01:28:07;3.60;;;3.10;;
65769;SDS011;52512;47.650;8.578;2022-08-25T01:30:34;5.60;;;2.50;;
65769;SDS011;52512;47.650;8.578;2022-08-25T01:33:03;2.50;;;2.40;;
65769;SDS011;52512;47.650;8.578;2022-08-25T01:35:30;4.50;;;2.90;;
65769;SDS011;52512;47.650;8.578;2022-08-25T01:37:58;4.00;;;2.83;;
65769;SDS011;52512;47.650;8.578;2022-08-25T01:40:24;2.50;;;2.27;;
65769;SDS011;52512;47.650;8.578;2022-08-25T01:43:00;2.43;;;2.33;;
65769;SDS011;52512;47.650;8.578;2022-08-25T01:45:32;4.10;;;2.80;;
65769;SDS011;52512;47.650;8.578;2022-08-25T01:47:59;3.17;;;2.97;;
65769;SDS011;52512;47.650;8.578;2022-08-25T01:50:25;5.23;;;2.90;;
65769;SDS011;52512;47.650;8.578;2022-08-25T01:52:58;4.70;;;2.87;;
65769;SDS011;52512;47.650;8.578;2022-08-25T01:55:27;6.33;;;3.40;;
65769;SDS011;52512;47.650;8.578;2022-08-25T01:57:53;5.53;;;3.00;;
65769;SDS011;52512;47.650;8.578;2022-08-25T02:00:19;2.90;;;2.70;;
65769;SDS011;52512;47.650;8.578;2022-08-25T02:02:46;7.30;;;2.83;;
65769;SDS011;52512;47.650;8.578;2022-08-25T02:05:12;2.90;;;2.70;;
65769;SDS011;52512;47.650;8.578;2022-08-25T02:07:40;5.50;;;3.37;;
65769;SDS011;52512;47.650;8.578;2022-08-25T02:10:07;3.13;;;2.83;;
65769;SDS011;52512;47.650;8.578;2022-08-25T02:12:35;2.60;;;2.40;;
65769;SDS011;52512;47.650;8.578;2022-08-25T02:15:01;3.03;;;2.83;;
65769;SDS011;52512;47.650;8.578;2022-08-25T02:17:29;4.17;;;2.90;;
65769;SDS011;52512;47.650;8.578;2022-08-25T02:19:55;2.70;;;2.50;;
65769;SDS011;52512;47.650;8.578;2022-08-25T02:22:21;2.27;;;2.07;;
65769;SDS011;52512;47.650;8.578;2022-08-25T02:24:47;2.97;;;2.33;;
65769;SDS011;52512;47.650;8.578;2022-08-25T02:27:13;5.97;;;3.33;;
65769;SDS011;52512;47.650;8.578;2022-08-25T02:29:39;5.43;;;2.10;;
65769;SDS011;52512;47.650;8.578;2022-08-25T02:32:04;3.03;;;2.67;;
65769;SDS011;52512;47.650;8.578;2022-08-25T02:34:30;2.43;;;2.23;;
65769;SDS011;52512;47.650;8.578;2022-08-25T02:36:56;3.20;;;2.00;;
65769;SDS011;52512;47.650;8.578;2022-08-25T02:39:22;9.83;;;2.73;;
65769;SDS011;52512;47.650;8.578;2022-08-25T02:41:48;2.43;;;2.23;;
65769;SDS011;52512;47.650;8.578;2022-08-25T02:44:14;17.13;;;2.57;;
65769;SDS011;52512;47.650;8.578;2022-08-25T02:46:39;7.50;;;2.60;;
65769;SDS011;52512;47.650;8.578;2022-08-25T02:49:05;2.53;;;2.33;;
65769;SDS011;52512;47.650;8.578;2022-08-25T02:51:32;3.57;;;2.63;;
65769;SDS011;52512;47.650;8.578;2022-08-25T02:53:59;2.60;;;2.40;;
65769;SDS011;52512;47.650;8.578;2022-08-25T02:56:26;2.70;;;2.50;;
65769;SDS011;52512;47.650;8.578;2022-08-25T02:58:52;4.80;;;3.30;;
65769;SDS011;52512;47.650;8.578;2022-08-25T03:01:20;5.13;;;2.43;;
65769;SDS011;52512;47.650;8.578;2022-08-25T03:03:46;2.63;;;2.43;;
65769;SDS011;52512;47.650;8.578;2022-08-25T03:06:13;2.97;;;2.67;;
65769;SDS011;52512;47.650;8.578;2022-08-25T03:08:41;3.53;;;3.03;;
65769;SDS011;52512;47.650;8.578;2022-08-25T03:11:07;2.83;;;2.60;;
65769;SDS011;52512;47.650;8.578;2022-08-25T03:13:33;3.47;;;3.03;;
65769;SDS011;52512;47.650;8.578;2022-08-25T03:16:00;3.10;;;2.87;;
65769;SDS011;52512;47.650;8.578;2022-08-25T03:18:27;2.60;;;2.40;;
65769;SDS011;52512;47.650;8.578;2022-08-25T03:20:53;2.83;;;2.63;;
65769;SDS011;52512;47.650;8.578;2022-08-25T03:23:19;3.00;;;2.80;;
65769;SDS011;52512;47.650;8.578;2022-08-25T03:25:45;2.83;;;2.20;;
65769;SDS011;52512;47.650;8.578;2022-08-25T03:28:29;2.87;;;1.90;;
65769;SDS011;52512;47.650;8.578;2022-08-25T03:30:57;3.97;;;2.60;;
65769;SDS011;52512;47.650;8.578;2022-08-25T03:33:24;2.90;;;2.70;;
65769;SDS011;52512;47.650;8.578;2022-08-25T03:35:51;3.13;;;2.40;;
65769;SDS011;52512;47.650;8.578;2022-08-25T03:38:17;3.00;;;2.53;;
65769;SDS011;52512;47.650;8.578;2022-08-25T03:40:42;2.83;;;2.43;;
65769;SDS011;52512;47.650;8.578;2022-08-25T03:43:08;4.30;;;1.90;;
65769;SDS011;52512;47.650;8.578;2022-08-25T03:45:34;3.40;;;2.67;;
65769;SDS011;52512;47.650;8.578;2022-08-25T03:48:04;2.83;;;2.63;;
65769;SDS011;52512;47.650;8.578;2022-08-25T03:50:30;3.40;;;2.90;;
65769;SDS011;52512;47.650;8.578;2022-08-25T03:52:56;2.63;;;2.43;;
65769;SDS011;52512;47.650;8.578;2022-08-25T03:55:24;3.37;;;2.60;;
65769;SDS011;52512;47.650;8.578;2022-08-25T03:57:51;4.27;;;2.70;;
65769;SDS011;52512;47.650;8.578;2022-08-25T04:00:18;2.30;;;2.20;;
65769;SDS011;52512;47.650;8.578;2022-08-25T04:02:44;9.13;;;2.70;;
65769;SDS011;52512;47.650;8.578;2022-08-25T04:05:11;2.90;;;2.70;;
65769;SDS011;52512;47.650;8.578;2022-08-25T04:07:37;3.13;;;2.83;;
65769;SDS011;52512;47.650;8.578;2022-08-25T04:10:04;6.50;;;3.70;;
65769;SDS011;52512;47.650;8.578;2022-08-25T04:12:31;5.10;;;2.80;;
65769;SDS011;52512;47.650;8.578;2022-08-25T04:14:56;8.70;;;2.47;;
65769;SDS011;52512;47.650;8.578;2022-08-25T04:17:22;3.43;;;2.20;;
65769;SDS011;52512;47.650;8.578;2022-08-25T04:19:48;3.70;;;2.30;;
65769;SDS011;52512;47.650;8.578;2022-08-25T04:22:14;2.73;;;2.30;;
65769;SDS011;52512;47.650;8.578;2022-08-25T04:24:40;2.53;;;2.43;;
65769;SDS011;52512;47.650;8.578;2022-08-25T04:27:06;2.90;;;2.60;;
65769;SDS011;52512;47.650;8.578;2022-08-25T04:29:32;2.53;;;2.33;;
65769;SDS011;52512;47.650;8.578;2022-08-25T04:31:57;3.20;;;2.87;;
65769;SDS011;52512;47.650;8.578;2022-08-25T04:34:24;6.40;;;2.90;;
65769;SDS011;52512;47.650;8.578;2022-08-25T04:36:51;2.43;;;2.23;;
65769;SDS011;52512;47.650;8.578;2022-08-25T04:39:17;2.90;;;2.00;;
65769;SDS011;52512;47.650;8.578;2022-08-25T04:41:47;5.00;;;2.20;;
65769;SDS011;52512;47.650;8.578;2022-08-25T04:44:14;2.60;;;2.40;;
65769;SDS011;52512;47.650;8.578;2022-08-25T04:46:40;2.87;;;2.60;;
65769;SDS011;52512;47.650;8.578;2022-08-25T04:49:06;6.87;;;3.37;;
65769;SDS011;52512;47.650;8.578;2022-08-25T04:51:36;4.37;;;2.83;;
65769;SDS011;52512;47.650;8.578;2022-08-25T04:54:05;2.70;;;2.30;;
65769;SDS011;52512;47.650;8.578;2022-08-25T04:56:32;3.43;;;2.77;;
65769;SDS011;52512;47.650;8.578;2022-08-25T04:59:03;6.10;;;3.00;;
65769;SDS011;52512;47.650;8.578;2022-08-25T05:01:31;4.20;;;3.30;;
65769;SDS011;52512;47.650;8.578;2022-08-25T05:03:58;2.80;;;2.60;;
65769;SDS011;52512;47.650;8.578;2022-08-25T05:06:26;3.00;;;2.50;;
65769;SDS011;52512;47.650;8.578;2022-08-25T05:08:53;2.40;;;2.20;;
65769;SDS011;52512;47.650;8.578;2022-08-25T05:11:20;2.77;;;2.57;;
65769;SDS011;52512;47.650;8.578;2022-08-25T05:13:46;3.00;;;2.50;;
65769;SDS011;52512;47.650;8.578;2022-08-25T05:16:13;3.17;;;2.63;;
65769;SDS011;52512;47.650;8.578;2022-08-25T05:18:40;3.83;;;2.97;;
65769;SDS011;52512;47.650;8.578;2022-08-25T05:21:07;5.73;;;2.70;;
65769;SDS011;52512;47.650;8.578;2022-08-25T05:23:36;2.40;;;2.20;;
65769;SDS011;52512;47.650;8.578;2022-08-25T05:26:03;6.73;;;2.87;;
65769;SDS011;52512;47.650;8.578;2022-08-25T05:28:34;3.17;;;2.90;;
65769;SDS011;52512;47.650;8.578;2022-08-25T05:31:01;4.40;;;3.23;;
65769;SDS011;52512;47.650;8.578;2022-08-25T05:33:28;2.93;;;2.70;;
65769;SDS011;52512;47.650;8.578;2022-08-25T05:35:54;4.47;;;3.20;;
65769;SDS011;52512;47.650;8.578;2022-08-25T05:38:20;10.80;;;2.30;;
65769;SDS011;52512;47.650;8.578;2022-08-25T05:40:46;3.23;;;2.93;;
65769;SDS011;52512;47.650;8.578;2022-08-25T05:43:11;3.23;;;2.90;;
65769;SDS011;52512;47.650;8.578;2022-08-25T05:45:39;3.10;;;2.60;;
65769;SDS011;52512;47.650;8.578;2022-08-25T05:48:05;2.73;;;2.53;;
65769;SDS011;52512;47.650;8.578;2022-08-25T05:50:31;2.80;;;2.60;;
65769;SDS011;52512;47.650;8.578;2022-08-25T05:52:56;3.00;;;2.80;;
65769;SDS011;52512;47.650;8.578;2022-08-25T05:55:22;6.00;;;2.90;;
65769;SDS011;52512;47.650;8.578;2022-08-25T05:57:48;3.73;;;3.03;;
65769;SDS011;52512;47.650;8.578;2022-08-25T06:00:14;3.33;;;3.03;;
65769;SDS011;52512;47.650;8.578;2022-08-25T06:02:41;2.67;;;2.47;;
65769;SDS011;52512;47.650;8.578;2022-08-25T06:05:16;4.13;;;2.80;;
65769;SDS011;52512;47.650;8.578;2022-08-25T06:07:45;2.87;;;2.67;;
65769;SDS011;52512;47.650;8.578;2022-08-25T06:10:12;2.80;;;2.47;;
65769;SDS011;52512;47.650;8.578;2022-08-25T06:12:39;2.70;;;2.50;;
65769;SDS011;52512;47.650;8.578;2022-08-25T06:15:16;2.97;;;2.73;;
65769;SDS011;52512;47.650;8.578;2022-08-25T06:17:45;2.97;;;2.67;;
65769;SDS011;52512;47.650;8.578;2022-08-25T06:20:18;3.83;;;3.10;;
65769;SDS011;52512;47.650;8.578;2022-08-25T06:23:09;7.50;;;3.60;;
65769;SDS011;52512;47.650;8.578;2022-08-25T06:25:39;3.57;;;3.23;;
65769;SDS011;52512;47.650;8.578;2022-08-25T06:28:15;4.53;;;3.40;;
65769;SDS011;52512;47.650;8.578;2022-08-25T06:30:56;5.47;;;4.33;;
65769;SDS011;52512;47.650;8.578;2022-08-25T06:33:44;4.87;;;3.00;;
65769;SDS011;52512;47.650;8.578;2022-08-25T06:42:40;5.60;;;3.93;;
65769;SDS011;52512;47.650;8.578;2022-08-25T06:45:06;10.13;;;4.43;;
65769;SDS011;52512;47.650;8.578;2022-08-25T06:48:04;8.53;;;3.80;;
65769;SDS011;52512;47.650;8.578;2022-08-25T06:50:55;12.33;;;4.70;;
65769;SDS011;52512;47.650;8.578;2022-08-25T06:53:50;5.67;;;4.97;;
65769;SDS011;52512;47.650;8.578;2022-08-25T06:56:38;14.87;;;5.17;;
65769;SDS011;52512;47.650;8.578;2022-08-25T06:59:31;9.27;;;4.43;;
65769;SDS011;52512;47.650;8.578;2022-08-25T07:02:12;10.37;;;5.50;;
65769;SDS011;52512;47.650;8.578;2022-08-25T07:04:49;8.20;;;5.37;;
65769;SDS011;52512;47.650;8.578;2022-08-25T07:07:42;12.60;;;5.00;;
65769;SDS011;52512;47.650;8.578;2022-08-25T07:10:27;7.10;;;4.20;;
65769;SDS011;52512;47.650;8.578;2022-08-25T07:13:34;8.50;;;5.53;;
65769;SDS011;52512;47.650;8.578;2022-08-25T07:16:38;7.83;;;5.37;;
65769;SDS011;52512;47.650;8.578;2022-08-25T07:19:35;14.70;;;4.80;;
65769;SDS011;52512;47.650;8.578;2022-08-25T07:22:24;8.50;;;4.53;;
65769;SDS011;52512;47.650;8.578;2022-08-25T07:28:07;8.10;;;4.67;;
65769;SDS011;52512;47.650;8.578;2022-08-25T07:30:55;11.83;;;5.60;;
65769;SDS011;52512;47.650;8.578;2022-08-25T07:33:28;7.87;;;5.43;;
65769;SDS011;52512;47.650;8.578;2022-08-25T07:36:02;7.00;;;5.50;;
65769;SDS011;52512;47.650;8.578;2022-08-25T07:38:33;8.40;;;4.73;;
65769;SDS011;52512;47.650;8.578;2022-08-25T07:41:02;7.53;;;5.57;;
65769;SDS011;52512;47.650;8.578;2022-08-25T07:43:30;6.83;;;5.60;;
65769;SDS011;52512;47.650;8.578;2022-08-25T07:46:09;7.23;;;4.37;;
65769;SDS011;52512;47.650;8.578;2022-08-25T07:48:56;9.90;;;4.67;;
65769;SDS011;52512;47.650;8.578;2022-08-25T07:51:36;11.63;;;5.10;;
65769;SDS011;52512;47.650;8.578;2022-08-25T07:54:12;14.90;;;6.27;;
65769;SDS011;52512;47.650;8.578;2022-08-25T07:56:43;6.73;;;5.30;;
65769;SDS011;52512;47.650;8.578;2022-08-25T07:59:12;7.60;;;5.07;;
65769;SDS011;52512;47.650;8.578;2022-08-25T08:01:38;8.50;;;5.10;;
65769;SDS011;52512;47.650;8.578;2022-08-25T08:04:04;6.53;;;4.47;;
65769;SDS011;52512;47.650;8.578;2022-08-25T08:06:30;6.33;;;4.40;;
65769;SDS011;52512;47.650;8.578;2022-08-25T08:09:08;10.93;;;4.73;;
65769;SDS011;52512;47.650;8.578;2022-08-25T08:11:36;8.50;;;4.60;;
65769;SDS011;52512;47.650;8.578;2022-08-25T08:14:17;7.03;;;4.93;;
65769;SDS011;52512;47.650;8.578;2022-08-25T08:16:43;8.90;;;4.70;;
65769;SDS011;52512;47.650;8.578;2022-08-25T08:19:23;6.33;;;4.80;;
65769;SDS011;52512;47.650;8.578;2022-08-25T08:22:00;7.10;;;4.40;;
65769;SDS011;52512;47.650;8.578;2022-08-25T08:24:58;10.00;;;5.57;;
65769;SDS011;52512;47.650;8.578;2022-08-25T08:27:36;11.63;;;5.00;;
65769;SDS011;52512;47.650;8.578;2022-08-25T08:30:27;6.10;;;4.13;;
65769;SDS011;52512;47.650;8.578;2022-08-25T08:33:03;5.67;;;4.63;;
65769;SDS011;52512;47.650;8.578;2022-08-25T08:35:42;4.37;;;3.93;;
65769;SDS011;52512;47.650;8.578;2022-08-25T08:38:08;6.03;;;4.73;;
65769;SDS011;52512;47.650;8.578;2022-08-25T08:40:44;5.80;;;5.20;;
65769;SDS011;52512;47.650;8.578;2022-08-25T08:52:53;7.90;;;4.07;;
65769;SDS011;52512;47.650;8.578;2022-08-25T08:55:37;8.63;;;4.17;;
65769;SDS011;52512;47.650;8.578;2022-08-25T08:58:53;5.87;;;3.30;;
65769;SDS011;52512;47.650;8.578;2022-08-25T09:01:29;3.37;;;3.13;;
65769;SDS011;52512;47.650;8.578;2022-08-25T09:06:31;5.23;;;3.33;;
65769;SDS011;52512;47.650;8.578;2022-08-25T09:09:13;3.80;;;3.50;;
65769;SDS011;52512;47.650;8.578;2022-08-25T09:11:57;4.63;;;4.20;;
65769;SDS011;52512;47.650;8.578;2022-08-25T09:15:12;6.43;;;3.03;;
65769;SDS011;52512;47.650;8.578;2022-08-25T09:21:06;5.47;;;3.60;;
65769;SDS011;52512;47.650;8.578;2022-08-25T09:26:32;4.60;;;4.13;;
65769;SDS011;52512;47.650;8.578;2022-08-25T09:29:03;5.60;;;3.70;;
65769;SDS011;52512;47.650;8.578;2022-08-25T09:31:34;3.50;;;3.30;;
65769;SDS011;52512;47.650;8.578;2022-08-25T09:34:04;3.63;;;3.27;;
65769;SDS011;52512;47.650;8.578;2022-08-25T09:36:38;5.93;;;4.30;;
65769;SDS011;52512;47.650;8.578;2022-08-25T09:39:17;4.00;;;3.60;;
65769;SDS011;52512;47.650;8.578;2022-08-25T09:41:48;4.50;;;4.00;;
65769;SDS011;52512;47.650;8.578;2022-08-25T09:47:00;5.30;;;3.90;;
65769;SDS011;52512;47.650;8.578;2022-08-25T09:49:37;4.80;;;4.03;;
65769;SDS011;52512;47.650;8.578;2022-08-25T09:52:22;5.60;;;3.63;;
65769;SDS011;52512;47.650;8.578;2022-08-25T09:55:14;3.87;;;3.60;;
65769;SDS011;52512;47.650;8.578;2022-08-25T09:57:48;4.50;;;3.70;;
65769;SDS011;52512;47.650;8.578;2022-08-25T10:05:46;8.43;;;4.50;;
65769;SDS011;52512;47.650;8.578;2022-08-25T10:09:08;4.57;;;4.00;;
65769;SDS011;52512;47.650;8.578;2022-08-25T10:11:10;6.50;;;3.50;;
65769;SDS011;52512;47.650;8.578;2022-08-25T10:16:22;6.13;;;4.60;;
65769;SDS011;52512;47.650;8.578;2022-08-25T10:19:05;5.10;;;3.47;;
65769;SDS011;52512;47.650;8.578;2022-08-25T10:24:37;4.60;;;3.40;;
65769;SDS011;52512;47.650;8.578;2022-08-25T10:30:06;6.53;;;3.50;;
65769;SDS011;52512;47.650;8.578;2022-08-25T10:36:07;3.63;;;3.33;;
65769;SDS011;52512;47.650;8.578;2022-08-25T10:38:43;3.47;;;3.00;;
65769;SDS011;52512;47.650;8.578;2022-08-25T10:47:40;4.37;;;3.23;;
65769;SDS011;52512;47.650;8.578;2022-08-25T10:50:42;4.53;;;3.23;;
65769;SDS011;52512;47.650;8.578;2022-08-25T10:56:04;17.30;;;3.20;;
65769;SDS011;52512;47.650;8.578;2022-08-25T10:58:58;3.83;;;3.53;;
65769;SDS011;52512;47.650;8.578;2022-08-25T11:04:52;3.40;;;3.10;;
65769;SDS011;52512;47.650;8.578;2022-08-25T11:07:48;3.97;;;3.23;;
65769;SDS011;52512;47.650;8.578;2022-08-25T11:14:06;4.70;;;2.93;;
65769;SDS011;52512;47.650;8.578;2022-08-25T11:17:00;5.10;;;3.20;;
65769;SDS011;52512;47.650;8.578;2022-08-25T11:19:42;3.57;;;2.87;;
65769;SDS011;52512;47.650;8.578;2022-08-25T11:24:57;2.83;;;2.73;;
65769;SDS011;52512;47.650;8.578;2022-08-25T11:27:32;3.30;;;3.10;;
65769;SDS011;52512;47.650;8.578;2022-08-25T11:30:06;3.23;;;2.80;;
65769;SDS011;52512;47.650;8.578;2022-08-25T11:32:37;2.90;;;2.67;;
65769;SDS011;52512;47.650;8.578;2022-08-25T11:35:07;5.60;;;2.20;;
65769;SDS011;52512;47.650;8.578;2022-08-25T11:37:38;3.30;;;3.10;;
65769;SDS011;52512;47.650;8.578;2022-08-25T11:40:34;2.40;;;2.30;;
65769;SDS011;52512;47.650;8.578;2022-08-25T11:43:30;2.93;;;2.80;;
65769;SDS011;52512;47.650;8.578;2022-08-25T11:51:53;3.00;;;2.37;;
65769;SDS011;52512;47.650;8.578;2022-08-25T11:54:23;2.50;;;2.30;;
65769;SDS011;52512;47.650;8.578;2022-08-25T11:56:58;2.20;;;2.10;;
65769;SDS011;52512;47.650;8.578;2022-08-25T12:05:48;2.17;;;2.17;;
65769;SDS011;52512;47.650;8.578;2022-08-25T12:11:08;1.93;;;1.83;;
65769;SDS011;52512;47.650;8.578;2022-08-25T12:27:46;2.20;;;2.10;;
65769;SDS011;52512;47.650;8.578;2022-08-25T12:33:09;3.10;;;2.40;;
65769;SDS011;52512;47.650;8.578;2022-08-25T12:38:15;1.93;;;1.83;;
65769;SDS011;52512;47.650;8.578;2022-08-25T12:40:59;1.77;;;1.67;;
65769;SDS011;52512;47.650;8.578;2022-08-25T12:43:41;1.90;;;1.80;;
65769;SDS011;52512;47.650;8.578;2022-08-25T12:51:52;2.17;;;1.80;;
65769;SDS011;52512;47.650;8.578;2022-08-25T12:54:31;2.00;;;1.90;;
65769;SDS011;52512;47.650;8.578;2022-08-25T12:59:57;2.10;;;2.00;;
65769;SDS011;52512;47.650;8.578;2022-08-25T13:02:47;2.30;;;1.63;;
65769;SDS011;52512;47.650;8.578;2022-08-25T13:10:54;2.20;;;1.87;;
65769;SDS011;52512;47.650;8.578;2022-08-25T13:13:37;3.90;;;2.07;;
65769;SDS011;52512;47.650;8.578;2022-08-25T13:16:17;5.10;;;2.00;;
65769;SDS011;52512;47.650;8.578;2022-08-25T13:18:46;2.10;;;2.00;;
65769;SDS011;52512;47.650;8.578;2022-08-25T13:21:29;2.50;;;1.70;;
65769;SDS011;52512;47.650;8.578;2022-08-25T13:23:58;1.67;;;1.57;;
65769;SDS011;52512;47.650;8.578;2022-08-25T13:28:57;3.40;;;1.70;;
65769;SDS011;52512;47.650;8.578;2022-08-25T13:31:36;2.30;;;2.10;;
65769;SDS011;52512;47.650;8.578;2022-08-25T13:34:17;2.10;;;2.00;;
65769;SDS011;52512;47.650;8.578;2022-08-25T13:36:45;1.63;;;1.57;;
65769;SDS011;52512;47.650;8.578;2022-08-25T13:39:30;2.10;;;2.00;;
65769;SDS011;52512;47.650;8.578;2022-08-25T13:42:00;2.13;;;2.03;;
65769;SDS011;52512;47.650;8.578;2022-08-25T13:44:29;2.13;;;2.03;;
65769;SDS011;52512;47.650;8.578;2022-08-25T13:49:45;2.60;;;2.40;;
65769;SDS011;52512;47.650;8.578;2022-08-25T13:52:16;1.67;;;1.57;;
65769;SDS011;52512;47.650;8.578;2022-08-25T13:54:57;2.00;;;1.90;;
65769;SDS011;52512;47.650;8.578;2022-08-25T13:57:26;3.40;;;2.47;;
65769;SDS011;52512;47.650;8.578;2022-08-25T13:59:55;2.03;;;1.93;;
65769;SDS011;52512;47.650;8.578;2022-08-25T14:02:45;1.80;;;1.70;;
65769;SDS011;52512;47.650;8.578;2022-08-25T14:05:14;5.33;;;2.60;;
65769;SDS011;52512;47.650;8.578;2022-08-25T14:07:53;1.73;;;1.63;;
65769;SDS011;52512;47.650;8.578;2022-08-25T14:10:40;3.93;;;2.20;;
65769;SDS011;52512;47.650;8.578;2022-08-25T14:15:38;2.40;;;2.30;;
65769;SDS011;52512;47.650;8.578;2022-08-25T14:18:17;2.30;;;2.07;;
65769;SDS011;52512;47.650;8.578;2022-08-25T14:20:51;2.30;;;1.80;;
65769;SDS011;52512;47.650;8.578;2022-08-25T14:23:20;1.97;;;1.87;;
65769;SDS011;52512;47.650;8.578;2022-08-25T14:25:49;2.23;;;2.13;;
65769;SDS011;52512;47.650;8.578;2022-08-25T14:28:21;2.03;;;1.93;;
65769;SDS011;52512;47.650;8.578;2022-08-25T14:30:49;2.00;;;1.90;;
65769;SDS011;52512;47.650;8.578;2022-08-25T14:33:22;2.30;;;2.10;;
65769;SDS011;52512;47.650;8.578;2022-08-25T14:35:54;2.10;;;1.60;;
65769;SDS011;52512;47.650;8.578;2022-08-25T14:38:23;1.80;;;1.77;;
65769;SDS011;52512;47.650;8.578;2022-08-25T14:40:50;2.17;;;2.07;;
65769;SDS011;52512;47.650;8.578;2022-08-25T14:43:17;2.87;;;2.00;;
65769;SDS011;52512;47.650;8.578;2022-08-25T14:45:45;2.30;;;2.20;;
65769;SDS011;52512;47.650;8.578;2022-08-25T14:48:16;1.90;;;1.80;;
65769;SDS011;52512;47.650;8.578;2022-08-25T14:50:57;1.87;;;1.77;;
65769;SDS011;52512;47.650;8.578;2022-08-25T14:53:24;2.60;;;2.10;;
65769;SDS011;52512;47.650;8.578;2022-08-25T14:55:52;3.40;;;3.13;;
65769;SDS011;52512;47.650;8.578;2022-08-25T14:58:20;6.00;;;2.00;;
65769;SDS011;52512;47.650;8.578;2022-08-25T15:00:46;3.90;;;2.20;;
65769;SDS011;52512;47.650;8.578;2022-08-25T15:03:14;1.70;;;1.60;;
65769;SDS011;52512;47.650;8.578;2022-08-25T15:05:49;2.27;;;2.17;;
65769;SDS011;52512;47.650;8.578;2022-08-25T15:08:15;2.13;;;1.93;;
65769;SDS011;52512;47.650;8.578;2022-08-25T15:10:59;8.63;;;1.60;;
65769;SDS011;52512;47.650;8.578;2022-08-25T15:13:24;5.63;;;1.90;;
65769;SDS011;52512;47.650;8.578;2022-08-25T15:15:51;2.33;;;2.20;;
65769;SDS011;52512;47.650;8.578;2022-08-25T15:18:17;2.17;;;1.97;;
65769;SDS011;52512;47.650;8.578;2022-08-25T15:20:43;1.70;;;1.60;;
65769;SDS011;52512;47.650;8.578;2022-08-25T15:23:09;2.70;;;1.90;;
65769;SDS011;52512;47.650;8.578;2022-08-25T15:25:34;2.30;;;2.17;;
65769;SDS011;52512;47.650;8.578;2022-08-25T15:28:04;4.77;;;1.93;;
65769;SDS011;52512;47.650;8.578;2022-08-25T15:30:30;2.60;;;1.60;;
65769;SDS011;52512;47.650;8.578;2022-08-25T15:32:56;2.50;;;2.00;;
65769;SDS011;52512;47.650;8.578;2022-08-25T15:35:22;10.73;;;2.00;;
65769;SDS011;52512;47.650;8.578;2022-08-25T15:37:47;1.50;;;1.50;;
65769;SDS011;52512;47.650;8.578;2022-08-25T15:40:13;2.10;;;1.70;;
65769;SDS011;52512;47.650;8.578;2022-08-25T15:42:39;1.90;;;1.50;;
65769;SDS011;52512;47.650;8.578;2022-08-25T15:45:05;1.63;;;1.53;;
65769;SDS011;52512;47.650;8.578;2022-08-25T15:47:31;2.17;;;2.07;;
65769;SDS011;52512;47.650;8.578;2022-08-25T15:50:03;1.90;;;1.80;;
65769;SDS011;52512;47.650;8.578;2022-08-25T15:52:38;3.63;;;1.70;;
65769;SDS011;52512;47.650;8.578;2022-08-25T15:55:04;1.97;;;1.87;;
65769;SDS011;52512;47.650;8.578;2022-08-25T15:57:31;1.50;;;1.50;;
65769;SDS011;52512;47.650;8.578;2022-08-25T15:59:57;1.80;;;1.70;;
65769;SDS011;52512;47.650;8.578;2022-08-25T16:02:23;1.93;;;1.83;;
65769;SDS011;52512;47.650;8.578;2022-08-25T16:04:49;3.17;;;1.80;;
65769;SDS011;52512;47.650;8.578;2022-08-25T16:07:17;2.87;;;1.87;;
65769;SDS011;52512;47.650;8.578;2022-08-25T16:09:43;2.20;;;2.00;;
65769;SDS011;52512;47.650;8.578;2022-08-25T16:12:09;2.10;;;2.00;;
65769;SDS011;52512;47.650;8.578;2022-08-25T16:14:35;1.53;;;1.53;;
65769;SDS011;52512;47.650;8.578;2022-08-25T16:17:02;2.20;;;2.00;;
65769;SDS011;52512;47.650;8.578;2022-08-25T16:19:29;8.50;;;2.60;;
65769;SDS011;52512;47.650;8.578;2022-08-25T16:21:55;2.87;;;2.10;;
65769;SDS011;52512;47.650;8.578;2022-08-25T16:24:22;3.53;;;3.23;;
65769;SDS011;52512;47.650;8.578;2022-08-25T16:26:47;2.37;;;2.17;;
65769;SDS011;52512;47.650;8.578;2022-08-25T16:29:14;1.77;;;1.67;;
65769;SDS011;52512;47.650;8.578;2022-08-25T16:31:40;2.20;;;2.00;;
65769;SDS011;52512;47.650;8.578;2022-08-25T16:34:06;1.77;;;1.63;;
65769;SDS011;52512;47.650;8.578;2022-08-25T16:36:32;7.67;;;1.80;;
65769;SDS011;52512;47.650;8.578;2022-08-25T16:38:57;1.73;;;1.63;;
65769;SDS011;52512;47.650;8.578;2022-08-25T16:41:26;1.27;;;1.27;;
65769;SDS011;52512;47.650;8.578;2022-08-25T16:44:03;1.23;;;1.23;;
65769;SDS011;52512;47.650;8.578;2022-08-25T16:46:34;2.23;;;1.67;;
65769;SDS011;52512;47.650;8.578;2022-08-25T16:49:00;1.40;;;1.40;;
65769;SDS011;52512;47.650;8.578;2022-08-25T16:51:30;7.40;;;2.23;;
65769;SDS011;52512;47.650;8.578;2022-08-25T16:53:56;1.60;;;1.33;;
65769;SDS011;52512;47.650;8.578;2022-08-25T16:56:41;2.03;;;1.93;;
65769;SDS011;52512;47.650;8.578;2022-08-25T16:59:08;2.00;;;1.80;;
65769;SDS011;52512;47.650;8.578;2022-08-25T17:01:35;1.83;;;1.73;;
65769;SDS011;52512;47.650;8.578;2022-08-25T17:04:02;2.17;;;2.03;;
65769;SDS011;52512;47.650;8.578;2022-08-25T17:06:29;1.50;;;1.50;;
65769;SDS011;52512;47.650;8.578;2022-08-25T17:08:59;1.60;;;1.50;;
65769;SDS011;52512;47.650;8.578;2022-08-25T17:11:26;5.77;;;1.67;;
65769;SDS011;52512;47.650;8.578;2022-08-25T17:13:58;3.17;;;1.87;;
65769;SDS011;52512;47.650;8.578;2022-08-25T17:16:27;2.73;;;2.60;;
65769;SDS011;52512;47.650;8.578;2022-08-25T17:18:54;2.70;;;1.73;;